sensor_id;sensor_type;location;lat;lon;timestamp;P1;durP1;ratioP1;P2;durP2;ratioP2
16731;SDS011;8484;50.904;9.192;2024-03-06T00:00:58;25.93;;;17.20;;
16731;SDS011;8484;50.904;9.192;2024-03-06T00:03:27;24.10;;;15.27;;
16731;SDS011;8484;50.904;9.192;2024-03-06T00:05:53;22.07;;;15.17;;
16731;SDS011;8484;50.904;9.192;2024-03-06T00:08:20;21.60;;;16.37;;
16731;SDS011;8484;50.904;9.192;2024-03-06T00:10:47;23.77;;;16.70;;
16731;SDS011;8484;50.904;9.192;2024-03-06T00:13:14;21.40;;;15.53;;
16731;SDS011;8484;50.904;9.192;2024-03-06T00:15:41;23.03;;;15.03;;
16731;SDS011;8484;50.904;9.192;2024-03-06T00:18:08;21.67;;;15.60;;
16731;SDS011;8484;50.904;9.192;2024-03-06T00:20:37;21.13;;;15.63;;
16731;SDS011;8484;50.904;9.192;2024-03-06T00:23:05;24.47;;;16.83;;
16731;SDS011;8484;50.904;9.192;2024-03-06T00:25:32;24.43;;;16.53;;
16731;SDS011;8484;50.904;9.192;2024-03-06T00:28:00;24.17;;;16.80;;
16731;SDS011;8484;50.904;9.192;2024-03-06T00:30:26;22.53;;;15.73;;
16731;SDS011;8484;50.904;9.192;2024-03-06T00:32:53;22.33;;;16.03;;
16731;SDS011;8484;50.904;9.192;2024-03-06T00:35:20;23.00;;;15.60;;
16731;SDS011;8484;50.904;9.192;2024-03-06T00:37:48;22.80;;;16.13;;
16731;SDS011;8484;50.904;9.192;2024-03-06T00:40:15;21.83;;;16.13;;
16731;SDS011;8484;50.904;9.192;2024-03-06T00:42:43;23.23;;;15.93;;
16731;SDS011;8484;50.904;9.192;2024-03-06T00:45:11;23.57;;;16.40;;
16731;SDS011;8484;50.904;9.192;2024-03-06T00:47:38;21.93;;;16.27;;
16731;SDS011;8484;50.904;9.192;2024-03-06T00:50:05;23.10;;;16.30;;
16731;SDS011;8484;50.904;9.192;2024-03-06T00:52:32;22.43;;;15.30;;
16731;SDS011;8484;50.904;9.192;2024-03-06T00:55:01;20.73;;;15.57;;
16731;SDS011;8484;50.904;9.192;2024-03-06T00:57:28;22.60;;;16.07;;
16731;SDS011;8484;50.904;9.192;2024-03-06T00:59:54;22.60;;;15.50;;
16731;SDS011;8484;50.904;9.192;2024-03-06T01:02:21;22.70;;;15.83;;
16731;SDS011;8484;50.904;9.192;2024-03-06T01:04:48;23.47;;;15.63;;
16731;SDS011;8484;50.904;9.192;2024-03-06T01:07:15;21.50;;;14.87;;
16731;SDS011;8484;50.904;9.192;2024-03-06T01:09:42;20.33;;;15.33;;
16731;SDS011;8484;50.904;9.192;2024-03-06T01:12:10;21.23;;;15.80;;
16731;SDS011;8484;50.904;9.192;2024-03-06T01:14:37;19.73;;;15.13;;
16731;SDS011;8484;50.904;9.192;2024-03-06T01:17:04;23.13;;;15.30;;
16731;SDS011;8484;50.904;9.192;2024-03-06T01:19:31;18.57;;;14.33;;
16731;SDS011;8484;50.904;9.192;2024-03-06T01:21:58;20.33;;;16.07;;
16731;SDS011;8484;50.904;9.192;2024-03-06T01:24:25;19.80;;;15.10;;
16731;SDS011;8484;50.904;9.192;2024-03-06T01:26:51;18.73;;;14.33;;
16731;SDS011;8484;50.904;9.192;2024-03-06T01:29:20;23.40;;;14.97;;
16731;SDS011;8484;50.904;9.192;2024-03-06T01:31:46;20.23;;;14.77;;
16731;SDS011;8484;50.904;9.192;2024-03-06T01:34:13;22.00;;;15.37;;
16731;SDS011;8484;50.904;9.192;2024-03-06T01:36:40;24.43;;;16.37;;
16731;SDS011;8484;50.904;9.192;2024-03-06T01:39:07;24.00;;;16.30;;
16731;SDS011;8484;50.904;9.192;2024-03-06T01:41:34;23.00;;;15.60;;
16731;SDS011;8484;50.904;9.192;2024-03-06T01:44:01;24.40;;;16.17;;
16731;SDS011;8484;50.904;9.192;2024-03-06T01:46:29;22.17;;;15.47;;
16731;SDS011;8484;50.904;9.192;2024-03-06T01:48:56;21.27;;;15.63;;
16731;SDS011;8484;50.904;9.192;2024-03-06T01:51:24;19.77;;;14.67;;
16731;SDS011;8484;50.904;9.192;2024-03-06T01:53:51;19.40;;;14.27;;
16731;SDS011;8484;50.904;9.192;2024-03-06T01:56:18;24.27;;;15.67;;
16731;SDS011;8484;50.904;9.192;2024-03-06T01:58:45;19.20;;;14.80;;
16731;SDS011;8484;50.904;9.192;2024-03-06T02:01:12;21.13;;;14.83;;
16731;SDS011;8484;50.904;9.192;2024-03-06T02:03:41;20.87;;;15.00;;
16731;SDS011;8484;50.904;9.192;2024-03-06T02:06:09;20.37;;;15.03;;
16731;SDS011;8484;50.904;9.192;2024-03-06T02:08:37;20.37;;;15.03;;
16731;SDS011;8484;50.904;9.192;2024-03-06T02:11:04;21.90;;;16.13;;
16731;SDS011;8484;50.904;9.192;2024-03-06T02:13:32;22.03;;;14.77;;
16731;SDS011;8484;50.904;9.192;2024-03-06T02:15:59;22.03;;;14.87;;
16731;SDS011;8484;50.904;9.192;2024-03-06T02:18:26;23.63;;;14.93;;
16731;SDS011;8484;50.904;9.192;2024-03-06T02:20:54;20.47;;;15.03;;
16731;SDS011;8484;50.904;9.192;2024-03-06T02:23:20;20.40;;;14.87;;
16731;SDS011;8484;50.904;9.192;2024-03-06T02:25:47;18.70;;;14.73;;
16731;SDS011;8484;50.904;9.192;2024-03-06T02:28:15;18.17;;;14.10;;
16731;SDS011;8484;50.904;9.192;2024-03-06T02:30:43;20.10;;;14.27;;
16731;SDS011;8484;50.904;9.192;2024-03-06T02:33:09;18.50;;;14.27;;
16731;SDS011;8484;50.904;9.192;2024-03-06T02:35:36;19.53;;;14.27;;
16731;SDS011;8484;50.904;9.192;2024-03-06T02:38:06;22.17;;;15.50;;
16731;SDS011;8484;50.904;9.192;2024-03-06T02:40:33;23.10;;;14.17;;
16731;SDS011;8484;50.904;9.192;2024-03-06T02:43:00;20.80;;;14.70;;
16731;SDS011;8484;50.904;9.192;2024-03-06T02:45:26;22.73;;;15.27;;
16731;SDS011;8484;50.904;9.192;2024-03-06T02:47:53;22.03;;;15.03;;
16731;SDS011;8484;50.904;9.192;2024-03-06T02:50:20;22.97;;;15.37;;
16731;SDS011;8484;50.904;9.192;2024-03-06T02:52:48;21.63;;;15.37;;
16731;SDS011;8484;50.904;9.192;2024-03-06T02:55:18;22.27;;;14.97;;
16731;SDS011;8484;50.904;9.192;2024-03-06T02:57:45;21.37;;;14.57;;
16731;SDS011;8484;50.904;9.192;2024-03-06T03:00:12;24.17;;;15.10;;
16731;SDS011;8484;50.904;9.192;2024-03-06T03:02:41;22.13;;;15.77;;
16731;SDS011;8484;50.904;9.192;2024-03-06T03:05:08;23.37;;;16.23;;
16731;SDS011;8484;50.904;9.192;2024-03-06T03:07:35;23.00;;;15.90;;
16731;SDS011;8484;50.904;9.192;2024-03-06T03:10:02;23.90;;;16.73;;
16731;SDS011;8484;50.904;9.192;2024-03-06T03:12:32;24.40;;;16.53;;
16731;SDS011;8484;50.904;9.192;2024-03-06T03:14:59;21.90;;;15.93;;
16731;SDS011;8484;50.904;9.192;2024-03-06T03:17:26;24.10;;;16.70;;
16731;SDS011;8484;50.904;9.192;2024-03-06T03:19:53;24.03;;;15.63;;
16731;SDS011;8484;50.904;9.192;2024-03-06T03:22:20;22.83;;;15.30;;
16731;SDS011;8484;50.904;9.192;2024-03-06T03:24:46;21.60;;;14.93;;
16731;SDS011;8484;50.904;9.192;2024-03-06T03:27:13;23.07;;;15.70;;
16731;SDS011;8484;50.904;9.192;2024-03-06T03:29:42;23.67;;;16.03;;
16731;SDS011;8484;50.904;9.192;2024-03-06T03:32:08;20.97;;;14.73;;
16731;SDS011;8484;50.904;9.192;2024-03-06T03:34:35;22.73;;;15.73;;
16731;SDS011;8484;50.904;9.192;2024-03-06T03:37:02;25.80;;;16.70;;
16731;SDS011;8484;50.904;9.192;2024-03-06T03:39:29;23.77;;;15.90;;
16731;SDS011;8484;50.904;9.192;2024-03-06T03:41:56;24.23;;;16.47;;
16731;SDS011;8484;50.904;9.192;2024-03-06T03:44:23;23.00;;;15.63;;
16731;SDS011;8484;50.904;9.192;2024-03-06T03:46:51;24.07;;;14.93;;
16731;SDS011;8484;50.904;9.192;2024-03-06T03:49:18;22.33;;;15.23;;
16731;SDS011;8484;50.904;9.192;2024-03-06T03:51:45;22.10;;;15.67;;
16731;SDS011;8484;50.904;9.192;2024-03-06T03:54:12;23.37;;;15.87;;
16731;SDS011;8484;50.904;9.192;2024-03-06T03:56:39;23.70;;;16.40;;
16731;SDS011;8484;50.904;9.192;2024-03-06T03:59:06;23.07;;;16.20;;
16731;SDS011;8484;50.904;9.192;2024-03-06T04:01:33;23.17;;;15.57;;
16731;SDS011;8484;50.904;9.192;2024-03-06T04:04:01;25.17;;;16.10;;
16731;SDS011;8484;50.904;9.192;2024-03-06T04:06:28;23.60;;;16.43;;
16731;SDS011;8484;50.904;9.192;2024-03-06T04:08:55;25.50;;;16.10;;
16731;SDS011;8484;50.904;9.192;2024-03-06T04:11:22;24.97;;;16.73;;
16731;SDS011;8484;50.904;9.192;2024-03-06T04:13:49;23.70;;;16.33;;
16731;SDS011;8484;50.904;9.192;2024-03-06T04:16:16;26.77;;;17.47;;
16731;SDS011;8484;50.904;9.192;2024-03-06T04:18:43;27.20;;;16.97;;
16731;SDS011;8484;50.904;9.192;2024-03-06T04:21:12;26.67;;;17.63;;
16731;SDS011;8484;50.904;9.192;2024-03-06T04:23:40;26.07;;;16.87;;
16731;SDS011;8484;50.904;9.192;2024-03-06T04:26:07;23.43;;;16.20;;
16731;SDS011;8484;50.904;9.192;2024-03-06T04:28:34;30.37;;;18.37;;
16731;SDS011;8484;50.904;9.192;2024-03-06T04:31:00;28.00;;;18.77;;
16731;SDS011;8484;50.904;9.192;2024-03-06T04:33:27;28.63;;;18.70;;
16731;SDS011;8484;50.904;9.192;2024-03-06T04:35:55;30.17;;;18.73;;
16731;SDS011;8484;50.904;9.192;2024-03-06T04:38:23;31.27;;;18.90;;
16731;SDS011;8484;50.904;9.192;2024-03-06T04:40:50;29.50;;;18.63;;
16731;SDS011;8484;50.904;9.192;2024-03-06T04:43:17;30.53;;;19.20;;
16731;SDS011;8484;50.904;9.192;2024-03-06T04:45:44;32.23;;;18.80;;
16731;SDS011;8484;50.904;9.192;2024-03-06T04:48:11;32.87;;;19.10;;
16731;SDS011;8484;50.904;9.192;2024-03-06T04:50:38;33.53;;;18.70;;
16731;SDS011;8484;50.904;9.192;2024-03-06T04:53:06;27.83;;;17.83;;
16731;SDS011;8484;50.904;9.192;2024-03-06T04:55:34;32.63;;;17.67;;
16731;SDS011;8484;50.904;9.192;2024-03-06T04:58:02;29.17;;;18.13;;
16731;SDS011;8484;50.904;9.192;2024-03-06T05:00:29;30.37;;;18.00;;
16731;SDS011;8484;50.904;9.192;2024-03-06T05:02:55;30.73;;;18.33;;
16731;SDS011;8484;50.904;9.192;2024-03-06T05:05:22;35.63;;;19.63;;
16731;SDS011;8484;50.904;9.192;2024-03-06T05:07:50;32.43;;;18.93;;
16731;SDS011;8484;50.904;9.192;2024-03-06T05:10:17;36.50;;;19.03;;
16731;SDS011;8484;50.904;9.192;2024-03-06T05:12:45;31.40;;;19.27;;
16731;SDS011;8484;50.904;9.192;2024-03-06T05:15:12;34.33;;;19.33;;
16731;SDS011;8484;50.904;9.192;2024-03-06T05:17:39;33.67;;;19.13;;
16731;SDS011;8484;50.904;9.192;2024-03-06T05:20:06;33.70;;;18.87;;
16731;SDS011;8484;50.904;9.192;2024-03-06T05:22:33;35.73;;;21.43;;
16731;SDS011;8484;50.904;9.192;2024-03-06T05:25:00;39.70;;;21.43;;
16731;SDS011;8484;50.904;9.192;2024-03-06T05:27:27;34.37;;;20.83;;
16731;SDS011;8484;50.904;9.192;2024-03-06T05:29:55;35.10;;;20.30;;
16731;SDS011;8484;50.904;9.192;2024-03-06T05:32:22;35.57;;;20.13;;
16731;SDS011;8484;50.904;9.192;2024-03-06T05:34:49;39.30;;;20.30;;
16731;SDS011;8484;50.904;9.192;2024-03-06T05:37:16;36.53;;;20.90;;
16731;SDS011;8484;50.904;9.192;2024-03-06T05:39:44;41.13;;;21.77;;
16731;SDS011;8484;50.904;9.192;2024-03-06T05:42:11;40.57;;;21.93;;
16731;SDS011;8484;50.904;9.192;2024-03-06T05:44:39;41.17;;;21.53;;
16731;SDS011;8484;50.904;9.192;2024-03-06T05:47:07;44.73;;;22.50;;
16731;SDS011;8484;50.904;9.192;2024-03-06T05:49:34;42.27;;;22.80;;
16731;SDS011;8484;50.904;9.192;2024-03-06T05:52:01;38.07;;;22.03;;
16731;SDS011;8484;50.904;9.192;2024-03-06T05:54:28;47.93;;;25.03;;
16731;SDS011;8484;50.904;9.192;2024-03-06T05:56:58;46.90;;;25.37;;
16731;SDS011;8484;50.904;9.192;2024-03-06T05:59:25;45.23;;;25.57;;
16731;SDS011;8484;50.904;9.192;2024-03-06T06:01:54;47.20;;;24.63;;
16731;SDS011;8484;50.904;9.192;2024-03-06T06:04:22;46.60;;;24.83;;
16731;SDS011;8484;50.904;9.192;2024-03-06T06:06:49;43.23;;;24.00;;
16731;SDS011;8484;50.904;9.192;2024-03-06T06:09:16;42.70;;;24.93;;
16731;SDS011;8484;50.904;9.192;2024-03-06T06:11:43;41.47;;;23.90;;
16731;SDS011;8484;50.904;9.192;2024-03-06T06:14:10;42.03;;;24.20;;
16731;SDS011;8484;50.904;9.192;2024-03-06T06:16:37;40.47;;;24.23;;
16731;SDS011;8484;50.904;9.192;2024-03-06T06:19:06;41.60;;;24.40;;
16731;SDS011;8484;50.904;9.192;2024-03-06T06:21:34;42.03;;;25.37;;
16731;SDS011;8484;50.904;9.192;2024-03-06T06:24:02;40.80;;;25.03;;
16731;SDS011;8484;50.904;9.192;2024-03-06T06:26:30;42.10;;;24.97;;
16731;SDS011;8484;50.904;9.192;2024-03-06T06:28:57;41.60;;;24.40;;
16731;SDS011;8484;50.904;9.192;2024-03-06T06:31:24;40.23;;;24.37;;
16731;SDS011;8484;50.904;9.192;2024-03-06T06:33:52;40.77;;;25.23;;
16731;SDS011;8484;50.904;9.192;2024-03-06T06:36:19;38.40;;;24.03;;
16731;SDS011;8484;50.904;9.192;2024-03-06T06:38:47;38.50;;;23.80;;
16731;SDS011;8484;50.904;9.192;2024-03-06T06:41:14;44.67;;;25.90;;
16731;SDS011;8484;50.904;9.192;2024-03-06T06:43:41;47.17;;;26.30;;
16731;SDS011;8484;50.904;9.192;2024-03-06T06:46:08;46.43;;;27.47;;
16731;SDS011;8484;50.904;9.192;2024-03-06T06:48:35;48.17;;;27.30;;
16731;SDS011;8484;50.904;9.192;2024-03-06T06:51:02;46.37;;;27.77;;
16731;SDS011;8484;50.904;9.192;2024-03-06T06:53:29;47.33;;;27.47;;
16731;SDS011;8484;50.904;9.192;2024-03-06T06:55:57;47.00;;;27.97;;
16731;SDS011;8484;50.904;9.192;2024-03-06T06:58:25;48.57;;;28.47;;
16731;SDS011;8484;50.904;9.192;2024-03-06T07:00:53;50.70;;;28.80;;
16731;SDS011;8484;50.904;9.192;2024-03-06T07:03:20;49.47;;;28.07;;
16731;SDS011;8484;50.904;9.192;2024-03-06T07:05:48;48.03;;;28.53;;
16731;SDS011;8484;50.904;9.192;2024-03-06T07:08:15;47.83;;;27.80;;
16731;SDS011;8484;50.904;9.192;2024-03-06T07:10:43;47.83;;;27.90;;
16731;SDS011;8484;50.904;9.192;2024-03-06T07:13:11;49.90;;;29.13;;
16731;SDS011;8484;50.904;9.192;2024-03-06T07:15:38;53.10;;;29.77;;
16731;SDS011;8484;50.904;9.192;2024-03-06T07:18:05;49.70;;;28.23;;
16731;SDS011;8484;50.904;9.192;2024-03-06T07:20:32;50.73;;;28.13;;
16731;SDS011;8484;50.904;9.192;2024-03-06T07:22:59;45.63;;;28.20;;
16731;SDS011;8484;50.904;9.192;2024-03-06T07:25:26;46.03;;;28.07;;
16731;SDS011;8484;50.904;9.192;2024-03-06T07:27:52;49.53;;;28.40;;
16731;SDS011;8484;50.904;9.192;2024-03-06T07:30:21;47.50;;;26.20;;
16731;SDS011;8484;50.904;9.192;2024-03-06T07:32:48;45.30;;;26.97;;
16731;SDS011;8484;50.904;9.192;2024-03-06T07:35:15;44.90;;;27.60;;
16731;SDS011;8484;50.904;9.192;2024-03-06T07:37:42;41.20;;;26.53;;
16731;SDS011;8484;50.904;9.192;2024-03-06T07:40:10;39.33;;;25.77;;
16731;SDS011;8484;50.904;9.192;2024-03-06T07:42:37;37.50;;;26.63;;
16731;SDS011;8484;50.904;9.192;2024-03-06T07:45:04;36.23;;;24.63;;
16731;SDS011;8484;50.904;9.192;2024-03-06T07:47:33;35.87;;;25.57;;
16731;SDS011;8484;50.904;9.192;2024-03-06T07:50:03;35.03;;;24.70;;
16731;SDS011;8484;50.904;9.192;2024-03-06T07:52:31;37.13;;;24.67;;
16731;SDS011;8484;50.904;9.192;2024-03-06T07:54:58;35.60;;;24.63;;
16731;SDS011;8484;50.904;9.192;2024-03-06T07:57:25;33.57;;;23.37;;
16731;SDS011;8484;50.904;9.192;2024-03-06T07:59:53;33.87;;;23.90;;
16731;SDS011;8484;50.904;9.192;2024-03-06T08:02:20;32.30;;;23.50;;
16731;SDS011;8484;50.904;9.192;2024-03-06T08:04:49;34.70;;;23.70;;
16731;SDS011;8484;50.904;9.192;2024-03-06T08:07:16;32.10;;;23.07;;
16731;SDS011;8484;50.904;9.192;2024-03-06T08:09:43;34.67;;;23.37;;
16731;SDS011;8484;50.904;9.192;2024-03-06T08:12:10;33.83;;;23.20;;
16731;SDS011;8484;50.904;9.192;2024-03-06T08:14:37;32.90;;;22.67;;
16731;SDS011;8484;50.904;9.192;2024-03-06T08:17:03;33.97;;;23.37;;
16731;SDS011;8484;50.904;9.192;2024-03-06T08:19:30;33.33;;;23.10;;
16731;SDS011;8484;50.904;9.192;2024-03-06T08:21:58;30.23;;;21.87;;
16731;SDS011;8484;50.904;9.192;2024-03-06T08:24:26;34.33;;;22.97;;
16731;SDS011;8484;50.904;9.192;2024-03-06T08:26:53;31.83;;;23.03;;
16731;SDS011;8484;50.904;9.192;2024-03-06T08:29:20;29.83;;;22.10;;
16731;SDS011;8484;50.904;9.192;2024-03-06T08:31:47;29.53;;;21.13;;
16731;SDS011;8484;50.904;9.192;2024-03-06T08:34:14;28.27;;;21.00;;
16731;SDS011;8484;50.904;9.192;2024-03-06T08:36:41;30.93;;;21.47;;
16731;SDS011;8484;50.904;9.192;2024-03-06T08:39:09;30.47;;;21.67;;
16731;SDS011;8484;50.904;9.192;2024-03-06T08:41:40;26.27;;;19.40;;
16731;SDS011;8484;50.904;9.192;2024-03-06T08:44:07;26.47;;;20.10;;
16731;SDS011;8484;50.904;9.192;2024-03-06T08:46:34;28.37;;;19.57;;
16731;SDS011;8484;50.904;9.192;2024-03-06T08:49:01;26.97;;;19.77;;
16731;SDS011;8484;50.904;9.192;2024-03-06T08:51:27;27.07;;;19.07;;
16731;SDS011;8484;50.904;9.192;2024-03-06T08:53:54;29.13;;;18.97;;
16731;SDS011;8484;50.904;9.192;2024-03-06T08:56:22;27.80;;;19.03;;
16731;SDS011;8484;50.904;9.192;2024-03-06T08:58:50;30.17;;;19.07;;
16731;SDS011;8484;50.904;9.192;2024-03-06T09:01:16;28.53;;;19.47;;
16731;SDS011;8484;50.904;9.192;2024-03-06T09:03:43;27.70;;;18.73;;
16731;SDS011;8484;50.904;9.192;2024-03-06T09:06:10;28.00;;;19.50;;
16731;SDS011;8484;50.904;9.192;2024-03-06T09:08:37;32.27;;;20.53;;
16731;SDS011;8484;50.904;9.192;2024-03-06T09:11:04;29.90;;;20.20;;
16731;SDS011;8484;50.904;9.192;2024-03-06T09:13:33;29.70;;;20.27;;
16731;SDS011;8484;50.904;9.192;2024-03-06T09:16:00;27.00;;;20.10;;
16731;SDS011;8484;50.904;9.192;2024-03-06T09:18:27;28.83;;;20.53;;
16731;SDS011;8484;50.904;9.192;2024-03-06T09:20:54;27.07;;;19.20;;
16731;SDS011;8484;50.904;9.192;2024-03-06T09:23:21;30.07;;;21.30;;
16731;SDS011;8484;50.904;9.192;2024-03-06T09:25:48;34.83;;;21.00;;
16731;SDS011;8484;50.904;9.192;2024-03-06T09:28:15;33.60;;;21.63;;
16731;SDS011;8484;50.904;9.192;2024-03-06T09:30:43;36.00;;;23.13;;
16731;SDS011;8484;50.904;9.192;2024-03-06T09:33:11;35.67;;;21.87;;
16731;SDS011;8484;50.904;9.192;2024-03-06T09:35:38;37.63;;;21.70;;
16731;SDS011;8484;50.904;9.192;2024-03-06T09:38:10;34.33;;;21.43;;
16731;SDS011;8484;50.904;9.192;2024-03-06T09:40:38;34.27;;;19.93;;
16731;SDS011;8484;50.904;9.192;2024-03-06T09:43:06;32.43;;;20.40;;
16731;SDS011;8484;50.904;9.192;2024-03-06T09:45:34;30.03;;;19.77;;
16731;SDS011;8484;50.904;9.192;2024-03-06T09:48:03;26.53;;;19.20;;
16731;SDS011;8484;50.904;9.192;2024-03-06T09:50:31;26.63;;;18.00;;
16731;SDS011;8484;50.904;9.192;2024-03-06T09:53:06;26.87;;;18.70;;
16731;SDS011;8484;50.904;9.192;2024-03-06T09:55:36;25.90;;;18.50;;
16731;SDS011;8484;50.904;9.192;2024-03-06T09:58:03;23.27;;;17.60;;
16731;SDS011;8484;50.904;9.192;2024-03-06T10:00:30;21.30;;;16.40;;
16731;SDS011;8484;50.904;9.192;2024-03-06T10:02:59;22.43;;;16.20;;
16731;SDS011;8484;50.904;9.192;2024-03-06T10:05:31;22.07;;;17.20;;
16731;SDS011;8484;50.904;9.192;2024-03-06T10:08:00;20.97;;;16.50;;
16731;SDS011;8484;50.904;9.192;2024-03-06T10:10:27;23.80;;;17.23;;
16731;SDS011;8484;50.904;9.192;2024-03-06T10:12:54;22.87;;;17.57;;
16731;SDS011;8484;50.904;9.192;2024-03-06T10:15:22;22.30;;;16.30;;
16731;SDS011;8484;50.904;9.192;2024-03-06T10:20:39;22.50;;;16.50;;
16731;SDS011;8484;50.904;9.192;2024-03-06T10:23:09;25.20;;;18.57;;
16731;SDS011;8484;50.904;9.192;2024-03-06T10:25:36;20.60;;;16.57;;
16731;SDS011;8484;50.904;9.192;2024-03-06T10:28:04;23.70;;;17.23;;
16731;SDS011;8484;50.904;9.192;2024-03-06T10:30:32;23.83;;;17.13;;
16731;SDS011;8484;50.904;9.192;2024-03-06T10:33:00;21.77;;;17.03;;
16731;SDS011;8484;50.904;9.192;2024-03-06T10:35:31;24.77;;;17.73;;
16731;SDS011;8484;50.904;9.192;2024-03-06T10:38:00;21.70;;;16.50;;
16731;SDS011;8484;50.904;9.192;2024-03-06T10:40:30;27.13;;;17.97;;
16731;SDS011;8484;50.904;9.192;2024-03-06T10:42:58;21.97;;;16.47;;
16731;SDS011;8484;50.904;9.192;2024-03-06T10:45:40;23.17;;;16.40;;
16731;SDS011;8484;50.904;9.192;2024-03-06T10:48:12;21.70;;;15.93;;
16731;SDS011;8484;50.904;9.192;2024-03-06T10:50:40;24.10;;;18.23;;
16731;SDS011;8484;50.904;9.192;2024-03-06T10:53:11;21.97;;;16.60;;
16731;SDS011;8484;50.904;9.192;2024-03-06T10:55:39;23.07;;;17.03;;
16731;SDS011;8484;50.904;9.192;2024-03-06T10:58:08;22.87;;;17.70;;
16731;SDS011;8484;50.904;9.192;2024-03-06T11:00:36;21.13;;;15.37;;
16731;SDS011;8484;50.904;9.192;2024-03-06T11:03:05;19.33;;;15.70;;
16731;SDS011;8484;50.904;9.192;2024-03-06T11:05:34;24.07;;;16.20;;
16731;SDS011;8484;50.904;9.192;2024-03-06T11:08:03;29.83;;;19.20;;
16731;SDS011;8484;50.904;9.192;2024-03-06T11:10:34;22.90;;;17.23;;
16731;SDS011;8484;50.904;9.192;2024-03-06T11:13:02;24.20;;;18.40;;
16731;SDS011;8484;50.904;9.192;2024-03-06T11:15:30;28.63;;;19.57;;
16731;SDS011;8484;50.904;9.192;2024-03-06T11:17:57;26.17;;;19.03;;
16731;SDS011;8484;50.904;9.192;2024-03-06T11:20:24;24.93;;;18.63;;
16731;SDS011;8484;50.904;9.192;2024-03-06T11:23:05;26.47;;;18.67;;
16731;SDS011;8484;50.904;9.192;2024-03-06T11:25:58;23.70;;;18.13;;
16731;SDS011;8484;50.904;9.192;2024-03-06T11:28:28;25.63;;;18.13;;
16731;SDS011;8484;50.904;9.192;2024-03-06T11:30:56;22.70;;;17.53;;
16731;SDS011;8484;50.904;9.192;2024-03-06T11:33:28;21.83;;;16.07;;
16731;SDS011;8484;50.904;9.192;2024-03-06T11:36:14;21.37;;;15.10;;
16731;SDS011;8484;50.904;9.192;2024-03-06T11:38:46;20.30;;;15.83;;
16731;SDS011;8484;50.904;9.192;2024-03-06T11:41:15;19.93;;;16.63;;
16731;SDS011;8484;50.904;9.192;2024-03-06T11:43:42;21.47;;;16.10;;
16731;SDS011;8484;50.904;9.192;2024-03-06T11:46:09;18.90;;;15.87;;
16731;SDS011;8484;50.904;9.192;2024-03-06T11:48:37;21.90;;;16.50;;
16731;SDS011;8484;50.904;9.192;2024-03-06T11:51:04;22.13;;;17.17;;
16731;SDS011;8484;50.904;9.192;2024-03-06T11:53:32;18.93;;;15.80;;
16731;SDS011;8484;50.904;9.192;2024-03-06T11:56:01;18.77;;;15.97;;
16731;SDS011;8484;50.904;9.192;2024-03-06T11:58:29;20.47;;;16.23;;
16731;SDS011;8484;50.904;9.192;2024-03-06T12:00:56;18.03;;;15.10;;
16731;SDS011;8484;50.904;9.192;2024-03-06T12:03:23;18.20;;;15.47;;
16731;SDS011;8484;50.904;9.192;2024-03-06T12:05:50;20.47;;;17.10;;
16731;SDS011;8484;50.904;9.192;2024-03-06T12:08:18;21.40;;;17.07;;
16731;SDS011;8484;50.904;9.192;2024-03-06T12:10:45;21.27;;;17.37;;
16731;SDS011;8484;50.904;9.192;2024-03-06T12:13:15;23.70;;;15.67;;
16731;SDS011;8484;50.904;9.192;2024-03-06T12:15:43;22.83;;;18.73;;
16731;SDS011;8484;50.904;9.192;2024-03-06T12:18:11;25.90;;;18.77;;
16731;SDS011;8484;50.904;9.192;2024-03-06T12:20:40;22.23;;;17.87;;
16731;SDS011;8484;50.904;9.192;2024-03-06T12:23:18;24.43;;;18.50;;
16731;SDS011;8484;50.904;9.192;2024-03-06T12:25:47;24.83;;;18.53;;
16731;SDS011;8484;50.904;9.192;2024-03-06T12:28:14;26.10;;;19.03;;
16731;SDS011;8484;50.904;9.192;2024-03-06T12:30:42;28.40;;;19.80;;
16731;SDS011;8484;50.904;9.192;2024-03-06T12:33:11;29.97;;;20.90;;
16731;SDS011;8484;50.904;9.192;2024-03-06T12:35:44;30.80;;;22.07;;
16731;SDS011;8484;50.904;9.192;2024-03-06T12:38:13;31.57;;;21.63;;
16731;SDS011;8484;50.904;9.192;2024-03-06T12:40:41;30.20;;;22.00;;
16731;SDS011;8484;50.904;9.192;2024-03-06T12:43:08;27.17;;;20.20;;
16731;SDS011;8484;50.904;9.192;2024-03-06T12:45:36;27.37;;;19.47;;
16731;SDS011;8484;50.904;9.192;2024-03-06T12:48:04;26.90;;;19.97;;
16731;SDS011;8484;50.904;9.192;2024-03-06T12:50:32;27.80;;;20.70;;
16731;SDS011;8484;50.904;9.192;2024-03-06T12:52:59;27.73;;;19.87;;
16731;SDS011;8484;50.904;9.192;2024-03-06T12:55:29;29.27;;;20.33;;
16731;SDS011;8484;50.904;9.192;2024-03-06T12:57:56;26.23;;;19.87;;
16731;SDS011;8484;50.904;9.192;2024-03-06T13:00:23;25.83;;;18.83;;
16731;SDS011;8484;50.904;9.192;2024-03-06T13:02:50;26.00;;;18.57;;
16731;SDS011;8484;50.904;9.192;2024-03-06T13:05:19;21.37;;;16.30;;
16731;SDS011;8484;50.904;9.192;2024-03-06T13:07:45;27.17;;;17.73;;
16731;SDS011;8484;50.904;9.192;2024-03-06T13:10:12;26.80;;;20.07;;
16731;SDS011;8484;50.904;9.192;2024-03-06T13:12:39;31.80;;;20.77;;
16731;SDS011;8484;50.904;9.192;2024-03-06T13:15:06;27.20;;;21.13;;
16731;SDS011;8484;50.904;9.192;2024-03-06T13:17:33;27.23;;;20.63;;
16731;SDS011;8484;50.904;9.192;2024-03-06T13:20:00;29.43;;;22.03;;
16731;SDS011;8484;50.904;9.192;2024-03-06T13:22:29;31.97;;;23.10;;
16731;SDS011;8484;50.904;9.192;2024-03-06T13:24:56;32.50;;;23.40;;
16731;SDS011;8484;50.904;9.192;2024-03-06T13:27:23;29.37;;;22.70;;
16731;SDS011;8484;50.904;9.192;2024-03-06T13:29:50;33.87;;;23.00;;
16731;SDS011;8484;50.904;9.192;2024-03-06T13:32:17;33.93;;;22.30;;
16731;SDS011;8484;50.904;9.192;2024-03-06T13:34:44;34.33;;;22.83;;
16731;SDS011;8484;50.904;9.192;2024-03-06T13:37:11;30.67;;;21.67;;
16731;SDS011;8484;50.904;9.192;2024-03-06T13:39:39;33.83;;;22.67;;
16731;SDS011;8484;50.904;9.192;2024-03-06T13:42:07;25.67;;;20.77;;
16731;SDS011;8484;50.904;9.192;2024-03-06T13:44:34;31.50;;;22.43;;
16731;SDS011;8484;50.904;9.192;2024-03-06T13:47:02;30.27;;;21.97;;
16731;SDS011;8484;50.904;9.192;2024-03-06T13:49:36;29.37;;;21.73;;
16731;SDS011;8484;50.904;9.192;2024-03-06T13:52:05;31.70;;;23.10;;
16731;SDS011;8484;50.904;9.192;2024-03-06T13:54:35;28.63;;;21.33;;
16731;SDS011;8484;50.904;9.192;2024-03-06T13:57:05;25.77;;;20.53;;
16731;SDS011;8484;50.904;9.192;2024-03-06T13:59:32;29.23;;;20.43;;
16731;SDS011;8484;50.904;9.192;2024-03-06T14:01:59;27.13;;;20.43;;
16731;SDS011;8484;50.904;9.192;2024-03-06T14:04:27;28.83;;;21.27;;
16731;SDS011;8484;50.904;9.192;2024-03-06T14:06:55;29.00;;;21.43;;
16731;SDS011;8484;50.904;9.192;2024-03-06T14:09:23;27.60;;;21.67;;
16731;SDS011;8484;50.904;9.192;2024-03-06T14:11:50;30.13;;;22.00;;
16731;SDS011;8484;50.904;9.192;2024-03-06T14:14:19;30.67;;;21.70;;
16731;SDS011;8484;50.904;9.192;2024-03-06T14:16:46;27.90;;;22.37;;
16731;SDS011;8484;50.904;9.192;2024-03-06T14:19:14;25.80;;;20.77;;
16731;SDS011;8484;50.904;9.192;2024-03-06T14:21:41;23.97;;;20.00;;
16731;SDS011;8484;50.904;9.192;2024-03-06T14:24:08;25.43;;;20.13;;
16731;SDS011;8484;50.904;9.192;2024-03-06T14:26:35;27.33;;;20.13;;
16731;SDS011;8484;50.904;9.192;2024-03-06T14:29:02;23.77;;;19.50;;
16731;SDS011;8484;50.904;9.192;2024-03-06T14:31:32;26.43;;;20.20;;
16731;SDS011;8484;50.904;9.192;2024-03-06T14:33:59;26.53;;;21.23;;
16731;SDS011;8484;50.904;9.192;2024-03-06T14:36:26;25.50;;;20.83;;
16731;SDS011;8484;50.904;9.192;2024-03-06T14:38:53;27.93;;;21.83;;